createdAt,value
2019-05-02T08:46:58.626Z,90.20
2019-05-02T08:52:15.340Z,90.00
2019-05-02T08:54:45.038Z,89.10
2019-05-02T08:57:13.778Z,89.80
2019-05-02T08:59:43.809Z,89.50
2019-05-02T09:02:12.547Z,88.10
2019-05-02T09:04:41.285Z,87.60
2019-05-02T09:07:10.087Z,87.10
2019-05-02T09:09:38.878Z,87.20
2019-05-02T09:12:12.301Z,88.00
2019-05-02T09:14:42.646Z,88.00
2019-05-02T09:17:16.174Z,87.10
2019-05-02T09:19:42.977Z,87.30
2019-05-02T09:22:15.362Z,87.10
2019-05-02T09:24:44.516Z,86.60
2019-05-02T09:27:13.339Z,87.30
2019-05-02T09:29:45.835Z,87.30
2019-05-02T09:32:17.004Z,87.30
2019-05-02T09:34:43.725Z,87.60
2019-05-02T09:37:12.618Z,87.50
2019-05-02T09:39:41.623Z,86.30
2019-05-02T09:42:12.452Z,87.10
2019-05-02T09:44:42.531Z,87.30
2019-05-02T09:47:14.060Z,87.20
2019-05-02T09:49:48.850Z,86.90
2019-05-02T09:52:13.371Z,86.20
2019-05-02T09:54:46.029Z,85.90
2019-05-02T09:57:14.009Z,85.60
2019-05-02T09:59:50.404Z,85.10
2019-05-02T10:02:14.741Z,85.50
2019-05-02T10:04:44.161Z,85.20
2019-05-02T10:07:15.311Z,84.40
2019-05-02T10:09:44.755Z,85.00
2019-05-02T10:12:13.760Z,85.30
2019-05-02T10:14:43.044Z,85.30
2019-05-02T10:17:12.792Z,85.60
2019-05-02T10:19:49.181Z,84.60
2019-05-02T10:22:14.267Z,84.50
2019-05-02T10:24:45.300Z,84.00
2019-05-02T10:27:14.257Z,83.20
2019-05-02T10:29:43.747Z,83.40
2019-05-02T10:32:16.546Z,83.00
2019-05-02T10:34:47.571Z,81.60
2019-05-02T10:37:14.374Z,81.10
2019-05-02T10:39:45.977Z,80.80
2019-05-02T10:42:15.050Z,80.40
2019-05-02T10:44:43.999Z,80.80
2019-05-02T10:47:13.026Z,81.10
2019-05-02T10:49:43.522Z,81.30
2019-05-02T10:52:13.884Z,80.60
2019-05-02T10:54:44.802Z,80.80
2019-05-02T10:57:13.914Z,80.90
2019-05-02T10:59:43.393Z,81.10
2019-05-02T11:02:25.872Z,80.80
2019-05-02T11:04:59.448Z,81.40
2019-05-02T11:07:28.245Z,81.00
2019-05-02T11:10:01.911Z,80.00
2019-05-02T11:12:44.160Z,80.30
2019-05-02T11:15:12.719Z,80.50
2019-05-02T11:17:46.716Z,80.40
2019-05-02T11:20:16.680Z,80.10
2019-05-02T11:22:45.622Z,79.90
2019-05-02T11:25:15.713Z,80.20
2019-05-02T11:27:48.672Z,80.00
2019-05-02T11:30:22.444Z,80.10
2019-05-02T11:32:55.030Z,80.70
2019-05-02T11:35:23.919Z,80.80
2019-05-02T11:37:53.685Z,80.10
2019-05-02T11:40:22.825Z,79.50
2019-05-02T11:42:52.271Z,79.60
2019-05-02T11:45:22.691Z,80.00
2019-05-02T11:47:55.828Z,79.70
2019-05-02T11:50:26.717Z,79.90
2019-05-02T11:52:57.666Z,80.80
2019-05-02T11:55:29.077Z,80.60
2019-05-02T11:58:02.461Z,80.00
2019-05-02T12:00:39.715Z,79.80
2019-05-02T12:03:18.717Z,80.40
2019-05-02T12:06:35.801Z,80.50
2019-05-02T12:09:08.681Z,80.80
2019-05-02T12:11:41.841Z,80.70
2019-05-02T12:14:13.384Z,80.80
2019-05-02T12:16:43.122Z,81.40
2019-05-02T12:19:14.744Z,81.90
2019-05-02T12:21:48.210Z,81.90
2019-05-02T12:24:17.285Z,82.80
2019-05-02T12:26:47.581Z,83.80
2019-05-02T12:29:16.354Z,85.60
2019-05-02T12:31:47.274Z,86.90
2019-05-02T12:34:15.769Z,88.00
2019-05-02T12:36:44.743Z,88.50
2019-05-02T12:39:13.716Z,89.20
2019-05-02T12:41:44.229Z,88.50
2019-05-02T12:44:14.108Z,88.80
2019-05-02T12:46:42.953Z,89.30
2019-05-02T12:49:22.593Z,89.50
2019-05-02T12:51:42.908Z,89.60
2019-05-02T12:54:12.382Z,90.00
2019-05-02T12:56:41.838Z,90.20
2019-05-02T12:59:11.856Z,90.30
2019-05-02T13:01:42.158Z,90.20
2019-05-02T13:04:13.002Z,90.40
2019-05-02T13:06:42.263Z,90.50
2019-05-02T13:09:12.622Z,90.80
2019-05-02T13:12:02.806Z,90.70
2019-05-02T13:14:32.043Z,90.40
2019-05-02T13:17:05.278Z,90.60
2019-05-02T13:19:39.887Z,90.20
2019-05-02T13:22:04.386Z,90.00
2019-05-02T13:24:34.783Z,89.90
2019-05-02T13:27:05.424Z,89.70
2019-05-02T13:29:34.187Z,89.50
2019-05-02T13:32:08.696Z,88.90
2019-05-02T13:34:37.445Z,87.30
2019-05-02T13:37:08.606Z,86.10
2019-05-02T13:39:39.098Z,85.20
2019-05-02T13:42:09.472Z,85.40
2019-05-02T13:44:52.692Z,86.20
2019-05-02T13:47:23.189Z,84.30
2019-05-02T13:49:56.406Z,83.70
2019-05-02T13:52:22.671Z,83.30
2019-05-02T13:54:55.687Z,82.70
2019-05-02T13:57:24.458Z,82.80
2019-05-02T13:59:55.518Z,83.90
2019-05-02T14:02:39.703Z,84.90
2019-05-02T14:05:14.289Z,85.80
2019-05-02T14:08:01.833Z,87.00
2019-05-02T14:10:39.251Z,87.80
2019-05-02T14:13:04.261Z,88.20
2019-05-02T14:15:34.713Z,86.70
2019-05-02T14:18:04.379Z,85.70
2019-05-02T14:20:37.420Z,83.90
2019-05-02T14:23:07.536Z,83.20
2019-05-02T14:25:38.122Z,83.20
2019-05-02T14:28:08.036Z,82.40
2019-05-02T14:30:43.366Z,82.60
2019-05-02T14:33:11.992Z,82.80
2019-05-02T14:35:42.673Z,82.10
2019-05-02T14:38:13.320Z,83.10
2019-05-02T14:41:02.785Z,83.00
2019-05-02T14:43:53.755Z,80.80
2019-05-02T14:46:28.665Z,80.70
2019-05-02T14:48:55.309Z,79.20
2019-05-02T14:52:07.349Z,77.70
2019-05-02T14:54:43.809Z,75.30
2019-05-02T14:57:17.227Z,74.90
2019-05-02T15:02:49.519Z,75.50
2019-05-02T15:05:27.958Z,76.70
2019-05-02T15:07:51.803Z,78.10
2019-05-02T15:10:22.685Z,80.20
2019-05-02T15:12:59.379Z,83.70
2019-05-02T15:15:23.125Z,87.10
2019-05-02T15:17:53.187Z,88.50
2019-05-02T15:20:35.796Z,89.70
2019-05-02T15:22:53.620Z,90.00
2019-05-02T15:25:22.629Z,88.80
2019-05-02T15:27:58.181Z,87.70
2019-05-02T15:30:23.984Z,87.20
2019-05-02T15:32:54.159Z,87.00
2019-05-02T15:35:26.865Z,86.20
2019-05-02T15:37:56.737Z,83.40
2019-05-02T15:40:43.154Z,83.00
2019-05-02T15:43:01.428Z,84.40
2019-05-02T15:45:27.125Z,84.60
2019-05-02T15:47:56.047Z,83.80
2019-05-02T15:50:25.877Z,83.40
2019-05-02T15:53:49.779Z,83.70
2019-05-02T15:56:19.910Z,84.30
2019-05-02T15:58:46.193Z,84.10
2019-05-02T16:01:17.169Z,83.90
2019-05-02T16:03:52.135Z,84.00
2019-05-02T16:06:28.265Z,84.10
2019-05-02T16:08:52.072Z,83.70
2019-05-02T16:11:22.883Z,84.40
2019-05-02T16:13:55.702Z,84.20
2019-05-02T16:16:22.980Z,85.00
2019-05-02T16:18:52.549Z,84.00
2019-05-02T16:21:30.590Z,83.30
2019-05-02T16:24:17.564Z,82.40
2019-05-02T16:26:46.931Z,82.50
2019-05-02T16:29:23.699Z,82.30
2019-05-02T16:31:54.910Z,82.40
2019-05-02T16:34:27.246Z,82.00
2019-05-02T16:36:53.921Z,81.40
2019-05-02T16:39:23.474Z,79.50
2019-05-02T16:41:52.927Z,79.80
2019-05-02T16:44:22.350Z,79.40
2019-05-02T16:46:52.142Z,79.50
2019-05-02T16:49:22.805Z,79.60
2019-05-02T16:51:52.956Z,79.40
2019-05-02T16:54:22.562Z,80.20
2019-05-02T16:56:52.159Z,82.30
2019-05-02T16:59:23.198Z,83.40
2019-05-02T17:01:54.399Z,84.20
2019-05-02T17:04:22.362Z,84.70
2019-05-02T17:06:56.792Z,85.30
2019-05-02T17:09:28.831Z,84.80
2019-05-02T17:11:59.661Z,84.30
2019-05-02T17:14:28.766Z,84.70
2019-05-02T17:17:01.514Z,84.00
2019-05-02T17:19:34.781Z,83.90
2019-05-02T17:22:05.753Z,83.80
2019-05-02T17:24:35.424Z,83.80
2019-05-02T17:27:06.799Z,83.90
2019-05-02T17:32:28.846Z,83.30
2019-05-02T17:35:02.616Z,83.60
2019-05-02T17:37:33.619Z,82.70
2019-05-02T17:40:04.566Z,82.80
2019-05-02T17:43:28.760Z,82.20
2019-05-02T17:46:07.568Z,81.90
2019-05-02T17:48:39.269Z,81.90
2019-05-02T17:51:18.113Z,81.70
2019-05-02T17:53:50.119Z,81.70
2019-05-02T17:56:23.174Z,81.00
2019-05-02T17:58:58.143Z,81.30
2019-05-02T18:01:26.379Z,80.80
2019-05-02T18:03:56.572Z,80.60
2019-05-02T18:06:32.945Z,80.80
2019-05-02T18:08:57.191Z,80.90
2019-05-02T18:11:29.551Z,80.90
2019-05-02T18:14:02.385Z,80.70
2019-05-02T18:16:32.415Z,80.30
2019-05-02T18:19:01.896Z,81.40
2019-05-02T18:21:32.367Z,82.70
2019-05-02T18:24:06.028Z,84.40
2019-05-02T18:26:36.684Z,86.20
2019-05-02T18:29:06.797Z,85.90
2019-05-02T18:31:39.697Z,86.60
2019-05-02T18:34:11.898Z,86.10
2019-05-02T18:36:38.109Z,86.40
2019-05-02T18:39:13.002Z,87.20
2019-05-02T18:41:44.717Z,88.00
2019-05-02T18:44:17.114Z,89.00
2019-05-02T18:46:46.371Z,89.10
2019-05-02T18:49:17.043Z,89.70
2019-05-02T18:51:48.287Z,89.80
2019-05-02T18:54:21.696Z,88.30
2019-05-02T18:56:55.369Z,87.80
2019-05-02T18:59:27.240Z,86.90
2019-05-02T19:01:59.349Z,85.60
2019-05-02T19:04:34.966Z,83.20
2019-05-02T19:07:02.984Z,85.30
2019-05-02T19:12:51.369Z,85.60
2019-05-02T19:15:22.227Z,86.30
2019-05-02T19:17:52.994Z,86.10
2019-05-02T19:20:24.970Z,86.80
2019-05-02T19:22:56.844Z,86.50
2019-05-02T19:25:24.801Z,85.60
2019-05-02T19:27:57.627Z,85.00
2019-05-02T19:30:42.379Z,86.00
2019-05-02T19:33:12.300Z,86.00
2019-05-02T19:35:46.805Z,85.80
2019-05-02T19:38:17.100Z,85.40
2019-05-02T19:40:46.855Z,84.80
2019-05-02T19:43:15.775Z,85.00
2019-05-02T19:46:16.895Z,84.60
2019-05-02T19:49:16.594Z,84.30
2019-05-02T19:51:45.358Z,84.70
2019-05-02T19:54:14.940Z,84.80
2019-05-02T19:56:47.241Z,85.20
2019-05-02T19:59:16.802Z,85.10
2019-05-02T20:01:47.829Z,85.20
2019-05-02T20:04:16.781Z,85.60
2019-05-02T20:06:47.551Z,85.80
2019-05-02T20:09:16.792Z,85.80
2019-05-02T20:11:46.438Z,86.30
